Time;durP1;ratioP1;P1;durP2;ratioP2;P2;SDS_P1;SDS_P2;PMS_P1;PMS_P2;Temp;Humidity;BMP_temperature;BMP_pressure;BME280_temperature;BME280_humidity;BME280_pressure;Samples;Min_cycle;Max_cycle;Signal;HPM_P1;HPM_P2
2023/06/25 00:00:15;;;;;;;8.18;4.90;;;;;;;;;;4968753;28;20042;-75
2023/06/25 00:02:41;;;;;;;7.75;4.38;;;;;;;;;;4967146;28;20125;-75
2023/06/25 00:05:07;;;;;;;8.32;4.45;;;;;;;;;;4968431;28;20042;-74
2023/06/25 00:07:33;;;;;;;7.70;5.20;;;;;;;;;;4966773;28;20048;-75
2023/06/25 00:09:59;;;;;;;7.63;4.57;;;;;;;;;;4970252;28;20736;-75
2023/06/25 00:12:25;;;;;;;7.10;4.35;;;;;;;;;;4967696;28;20034;-75
2023/06/25 00:14:51;;;;;;;8.18;4.40;;;;;;;;;;4970343;28;20042;-74
2023/06/25 00:17:17;;;;;;;6.43;4.07;;;;;;;;;;4969721;28;20034;-74
2023/06/25 00:19:44;;;;;;;7.97;5.30;;;;;;;;;;4970409;28;20516;-74
2023/06/25 00:22:11;;;;;;;7.72;5.03;;;;;;;;;;4969640;28;20054;-74
2023/06/25 00:24:37;;;;;;;6.35;3.90;;;;;;;;;;4969353;28;20586;-74
2023/06/25 00:27:03;;;;;;;6.55;4.35;;;;;;;;;;4969645;28;20074;-74
2023/06/25 00:29:29;;;;;;;6.97;4.22;;;;;;;;;;4969982;28;20072;-75
2023/06/25 00:31:55;;;;;;;9.07;4.82;;;;;;;;;;4968679;28;20023;-75
2023/06/25 00:34:21;;;;;;;6.43;4.47;;;;;;;;;;4969479;28;20505;-75
2023/06/25 00:36:51;;;;;;;9.05;4.75;;;;;;;;;;4969101;28;20035;-76
2023/06/25 00:39:17;;;;;;;9.95;5.50;;;;;;;;;;4968247;28;20102;-74
2023/06/25 00:41:43;;;;;;;10.38;4.97;;;;;;;;;;4969285;28;20030;-74
2023/06/25 00:44:09;;;;;;;8.00;4.63;;;;;;;;;;4970112;28;20023;-74
2023/06/25 00:46:35;;;;;;;6.85;4.50;;;;;;;;;;4966623;28;20086;-76
2023/06/25 00:49:06;;;;;;;9.05;5.22;;;;;;;;;;4970146;28;20106;-76
2023/06/25 00:51:35;;;;;;;8.57;4.53;;;;;;;;;;4970010;28;20031;-74
2023/06/25 00:54:05;;;;;;;9.95;5.30;;;;;;;;;;4968791;28;20034;-75
2023/06/25 00:56:37;;;;;;;7.18;4.60;;;;;;;;;;4967058;28;20026;-75
2023/06/25 00:59:03;;;;;;;9.15;4.80;;;;;;;;;;4962937;28;20170;-76
2023/06/25 01:01:44;;;;;;;7.40;4.70;;;;;;;;;;4967393;28;20034;-75
2023/06/25 01:04:23;;;;;;;7.68;4.80;;;;;;;;;;4965878;28;20713;-76
2023/06/25 01:06:51;;;;;;;8.65;5.40;;;;;;;;;;4969741;28;20042;-76
2023/06/25 01:09:17;;;;;;;6.53;4.60;;;;;;;;;;4966981;28;20089;-75
2023/06/25 01:12:16;;;;;;;6.07;4.40;;;;;;;;;;4969629;28;20109;-76
2023/06/25 01:14:42;;;;;;;10.90;5.40;;;;;;;;;;4957213;28;20045;-76
2023/06/25 01:17:09;;;;;;;6.75;4.88;;;;;;;;;;4969703;28;20129;-75
2023/06/25 01:19:35;;;;;;;8.50;5.22;;;;;;;;;;4967380;28;20027;-75
2023/06/25 01:22:02;;;;;;;7.32;4.18;;;;;;;;;;4967224;28;20062;-75
2023/06/25 01:24:28;;;;;;;8.93;4.78;;;;;;;;;;4970255;28;20073;-75
2023/06/25 01:26:55;;;;;;;8.10;4.88;;;;;;;;;;4969679;28;20465;-75
2023/06/25 01:29:22;;;;;;;7.05;5.03;;;;;;;;;;4968654;28;20031;-75
2023/06/25 01:31:51;;;;;;;6.97;4.38;;;;;;;;;;4967433;28;20031;-75
2023/06/25 01:34:19;;;;;;;8.77;5.18;;;;;;;;;;4969098;28;20069;-75
2023/06/25 01:36:48;;;;;;;10.45;5.80;;;;;;;;;;4967102;28;20038;-75
2023/06/25 01:39:14;;;;;;;8.50;5.18;;;;;;;;;;4968915;28;20649;-75
2023/06/25 01:41:40;;;;;;;8.68;5.10;;;;;;;;;;4966537;28;20031;-75
2023/06/25 01:44:06;;;;;;;7.50;5.07;;;;;;;;;;4967368;28;20065;-76
2023/06/25 01:46:32;;;;;;;9.05;5.40;;;;;;;;;;4967792;28;20027;-75
2023/06/25 01:48:58;;;;;;;11.00;5.55;;;;;;;;;;4967067;28;20033;-75
2023/06/25 01:51:26;;;;;;;8.27;5.10;;;;;;;;;;4967147;28;20027;-75
2023/06/25 01:53:52;;;;;;;6.90;4.80;;;;;;;;;;4968126;28;20114;-75
2023/06/25 01:56:18;;;;;;;10.60;5.18;;;;;;;;;;4967800;28;20027;-75
2023/06/25 01:58:44;;;;;;;7.80;5.03;;;;;;;;;;4968012;28;20042;-74
2023/06/25 02:01:10;;;;;;;7.65;4.85;;;;;;;;;;4967839;28;20102;-74
2023/06/25 02:03:36;;;;;;;8.10;5.63;;;;;;;;;;4968970;28;20372;-75
2023/06/25 02:06:02;;;;;;;9.65;5.05;;;;;;;;;;4967450;28;20043;-75
2023/06/25 02:08:28;;;;;;;8.18;5.05;;;;;;;;;;4967294;28;20027;-75
2023/06/25 02:10:54;;;;;;;9.23;5.55;;;;;;;;;;4965366;28;20050;-75
2023/06/25 02:13:20;;;;;;;8.32;4.88;;;;;;;;;;4971908;28;20401;-75
2023/06/25 02:15:46;;;;;;;9.07;5.38;;;;;;;;;;4967608;28;20027;-76
2023/06/25 02:18:12;;;;;;;7.95;5.05;;;;;;;;;;4967022;28;20061;-75
2023/06/25 02:20:38;;;;;;;8.13;5.18;;;;;;;;;;4968714;28;20035;-75
2023/06/25 02:23:04;;;;;;;8.85;5.10;;;;;;;;;;4966923;28;20109;-74
2023/06/25 02:25:30;;;;;;;8.20;5.13;;;;;;;;;;4968321;28;20568;-75
2023/06/25 02:27:56;;;;;;;9.18;5.75;;;;;;;;;;4967674;28;20031;-74
2023/06/25 02:30:22;;;;;;;9.48;5.68;;;;;;;;;;4969471;28;20027;-75
2023/06/25 02:32:48;;;;;;;7.78;4.85;;;;;;;;;;4967109;28;20035;-75
2023/06/25 02:35:14;;;;;;;8.30;5.38;;;;;;;;;;4971696;28;20039;-75
2023/06/25 02:37:40;;;;;;;10.15;4.93;;;;;;;;;;4970987;28;20122;-75
2023/06/25 02:40:06;;;;;;;6.43;4.45;;;;;;;;;;4972376;28;20529;-75
2023/06/25 02:42:32;;;;;;;9.40;5.28;;;;;;;;;;4970848;28;20077;-74
2023/06/25 02:44:58;;;;;;;8.48;5.15;;;;;;;;;;4967738;28;20363;-75
2023/06/25 02:47:24;;;;;;;9.52;4.70;;;;;;;;;;4971268;28;20437;-75
2023/06/25 02:49:50;;;;;;;10.38;5.38;;;;;;;;;;4971951;28;20034;-75
2023/06/25 02:52:16;;;;;;;6.53;4.30;;;;;;;;;;4970929;28;20039;-75
2023/06/25 02:54:42;;;;;;;11.13;5.90;;;;;;;;;;4968268;28;20019;-75
2023/06/25 02:57:08;;;;;;;7.75;4.57;;;;;;;;;;4971036;28;20518;-75
2023/06/25 02:59:34;;;;;;;9.73;5.07;;;;;;;;;;4971719;28;20039;-75
2023/06/25 03:02:00;;;;;;;9.15;5.70;;;;;;;;;;4965150;28;20027;-75
2023/06/25 03:04:26;;;;;;;10.88;4.75;;;;;;;;;;4967551;28;20047;-75
2023/06/25 03:06:52;;;;;;;10.82;4.47;;;;;;;;;;4972230;28;20034;-75
2023/06/25 03:09:18;;;;;;;11.27;5.15;;;;;;;;;;4972252;28;20042;-75
2023/06/25 03:11:44;;;;;;;8.90;5.18;;;;;;;;;;4970383;28;20057;-75
2023/06/25 03:14:10;;;;;;;7.50;4.55;;;;;;;;;;4970677;28;20035;-74
2023/06/25 03:16:36;;;;;;;7.28;4.68;;;;;;;;;;4981699;28;20497;-74
2023/06/25 03:19:03;;;;;;;8.65;5.32;;;;;;;;;;4962382;28;20046;-74
2023/06/25 03:21:29;;;;;;;9.80;5.28;;;;;;;;;;4971252;28;20034;-74
2023/06/25 03:23:55;;;;;;;6.80;4.63;;;;;;;;;;4969436;28;20019;-75
2023/06/25 03:26:21;;;;;;;7.82;4.88;;;;;;;;;;4969949;28;20034;-76
2023/06/25 03:28:46;;;;;;;7.72;4.70;;;;;;;;;;4971979;28;20077;-75
2023/06/25 03:31:12;;;;;;;8.68;4.75;;;;;;;;;;4962345;28;20023;-75
2023/06/25 03:33:38;;;;;;;9.15;4.82;;;;;;;;;;4970813;28;20019;-76
2023/06/25 03:36:04;;;;;;;8.23;4.60;;;;;;;;;;4970294;28;20086;-76
2023/06/25 03:38:30;;;;;;;9.32;5.63;;;;;;;;;;4969890;28;20027;-76
2023/06/25 03:40:56;;;;;;;7.60;4.97;;;;;;;;;;4968681;28;20046;-75
2023/06/25 03:43:22;;;;;;;8.50;4.95;;;;;;;;;;4965425;28;20023;-75
2023/06/25 03:45:48;;;;;;;6.40;4.53;;;;;;;;;;4970378;28;20402;-76
2023/06/25 03:48:14;;;;;;;9.52;4.78;;;;;;;;;;4972111;28;20023;-75
2023/06/25 03:50:40;;;;;;;8.23;4.22;;;;;;;;;;4972054;28;20034;-75
2023/06/25 03:53:06;;;;;;;9.00;5.10;;;;;;;;;;4967125;28;20515;-76
2023/06/25 03:55:32;;;;;;;7.53;4.68;;;;;;;;;;4970946;28;20054;-77
2023/06/25 03:57:58;;;;;;;6.75;4.50;;;;;;;;;;4969774;28;20561;-76
2023/06/25 04:00:24;;;;;;;8.27;4.72;;;;;;;;;;4971066;28;20030;-76
2023/06/25 04:02:50;;;;;;;7.53;4.18;;;;;;;;;;4970835;28;20030;-76
2023/06/25 04:05:16;;;;;;;10.50;5.22;;;;;;;;;;4968504;28;20043;-76
2023/06/25 04:07:42;;;;;;;7.78;5.00;;;;;;;;;;4965373;28;20370;-76
2023/06/25 04:10:08;;;;;;;8.25;4.80;;;;;;;;;;4964623;28;20034;-76
2023/06/25 04:12:34;;;;;;;7.22;4.63;;;;;;;;;;4970292;28;20027;-77
2023/06/25 04:15:00;;;;;;;9.68;5.15;;;;;;;;;;4971698;28;20018;-76
2023/06/25 04:17:26;;;;;;;7.00;4.60;;;;;;;;;;4971725;28;20103;-75
2023/06/25 04:19:52;;;;;;;8.52;4.90;;;;;;;;;;4971192;28;20035;-75
2023/06/25 04:22:18;;;;;;;7.72;4.40;;;;;;;;;;4969863;28;20034;-75
2023/06/25 04:24:44;;;;;;;6.55;4.13;;;;;;;;;;4970019;28;20026;-76
2023/06/25 04:27:10;;;;;;;8.90;4.65;;;;;;;;;;4969525;28;20486;-76
2023/06/25 04:29:36;;;;;;;6.85;4.35;;;;;;;;;;4971722;28;20034;-76
2023/06/25 04:32:02;;;;;;;7.80;4.50;;;;;;;;;;4971412;28;20030;-75
2023/06/25 04:34:28;;;;;;;7.13;4.47;;;;;;;;;;4970724;28;20035;-76
2023/06/25 04:36:54;;;;;;;6.28;4.35;;;;;;;;;;4968977;28;20038;-75
2023/06/25 04:39:20;;;;;;;7.40;4.47;;;;;;;;;;4970492;28;20037;-76
2023/06/25 04:41:46;;;;;;;7.03;4.40;;;;;;;;;;4968595;28;20044;-75
2023/06/25 04:44:12;;;;;;;8.68;4.65;;;;;;;;;;4970550;28;20023;-76
2023/06/25 04:46:38;;;;;;;6.70;4.30;;;;;;;;;;4967712;28;20660;-77
2023/06/25 04:49:04;;;;;;;6.53;4.25;;;;;;;;;;4969986;28;20673;-76
2023/06/25 04:51:30;;;;;;;8.55;4.68;;;;;;;;;;4964775;28;20034;-76
2023/06/25 04:53:56;;;;;;;7.25;4.55;;;;;;;;;;4969901;28;20034;-76
2023/06/25 04:56:22;;;;;;;7.00;4.75;;;;;;;;;;4966723;28;20515;-76
2023/06/25 04:58:48;;;;;;;6.43;4.32;;;;;;;;;;4966201;28;20957;-76
2023/06/25 05:01:14;;;;;;;6.28;3.90;;;;;;;;;;4966273;28;20041;-77
2023/06/25 05:03:40;;;;;;;8.18;4.65;;;;;;;;;;4970941;28;20027;-76
2023/06/25 05:06:06;;;;;;;6.90;4.38;;;;;;;;;;4971007;28;20058;-76
2023/06/25 05:08:32;;;;;;;8.23;4.47;;;;;;;;;;4968700;28;20047;-76
2023/06/25 05:10:58;;;;;;;6.13;4.45;;;;;;;;;;4967801;28;20034;-76
2023/06/25 05:13:24;;;;;;;5.78;4.05;;;;;;;;;;4970101;28;20098;-76
2023/06/25 05:15:50;;;;;;;7.55;4.25;;;;;;;;;;4970565;28;20437;-76
2023/06/25 05:18:16;;;;;;;7.63;4.22;;;;;;;;;;4969877;28;20374;-76
2023/06/25 05:20:42;;;;;;;6.72;4.00;;;;;;;;;;4971415;28;20038;-76
2023/06/25 05:23:09;;;;;;;6.80;4.05;;;;;;;;;;4968076;28;20086;-75
2023/06/25 05:25:35;;;;;;;6.60;4.28;;;;;;;;;;4965938;28;20106;-76
2023/06/25 05:28:03;;;;;;;6.90;4.50;;;;;;;;;;4969341;28;20039;-76
2023/06/25 05:30:29;;;;;;;8.40;4.63;;;;;;;;;;4971120;28;20085;-76
2023/06/25 05:32:55;;;;;;;7.03;4.60;;;;;;;;;;4970532;28;20034;-77
2023/06/25 05:35:22;;;;;;;6.32;3.58;;;;;;;;;;4968852;28;20030;-76
2023/06/25 05:37:48;;;;;;;6.38;3.95;;;;;;;;;;4969389;28;20508;-76
2023/06/25 05:40:14;;;;;;;10.70;3.70;;;;;;;;;;4970594;28;20066;-76
2023/06/25 05:42:40;;;;;;;4.78;3.45;;;;;;;;;;4970421;28;20054;-77
2023/06/25 05:45:07;;;;;;;7.68;3.90;;;;;;;;;;4970033;28;20026;-76
2023/06/25 05:47:33;;;;;;;6.28;3.80;;;;;;;;;;4970475;28;20466;-76
2023/06/25 05:49:59;;;;;;;6.60;3.58;;;;;;;;;;4968835;28;20098;-76
2023/06/25 05:52:25;;;;;;;5.82;3.95;;;;;;;;;;4961159;28;20027;-76
2023/06/25 05:54:51;;;;;;;5.15;4.07;;;;;;;;;;4969605;28;20066;-76
2023/06/25 05:57:17;;;;;;;6.07;3.50;;;;;;;;;;4968935;28;20394;-77
2023/06/25 05:59:42;;;;;;;6.38;3.67;;;;;;;;;;4967087;28;20027;-75
2023/06/25 06:02:09;;;;;;;9.02;4.40;;;;;;;;;;4970187;28;20043;-76
2023/06/25 06:04:35;;;;;;;5.68;3.70;;;;;;;;;;4969610;28;20050;-76
2023/06/25 06:07:01;;;;;;;7.00;4.28;;;;;;;;;;4967923;28;20126;-76
2023/06/25 06:09:27;;;;;;;6.47;3.88;;;;;;;;;;4971845;28;20034;-76
2023/06/25 06:11:53;;;;;;;7.28;4.25;;;;;;;;;;4972194;28;20031;-75
2023/06/25 06:14:19;;;;;;;7.28;4.20;;;;;;;;;;4971710;28;20501;-76
2023/06/25 06:16:45;;;;;;;5.57;3.50;;;;;;;;;;4972968;28;20035;-77
2023/06/25 06:19:11;;;;;;;4.57;3.13;;;;;;;;;;4969432;28;20070;-76
2023/06/25 06:21:37;;;;;;;6.20;3.95;;;;;;;;;;4970187;28;20138;-76
2023/06/25 06:24:04;;;;;;;7.25;3.42;;;;;;;;;;4969991;28;20027;-76
2023/06/25 06:26:30;;;;;;;5.47;3.45;;;;;;;;;;4970285;28;20023;-76
2023/06/25 06:28:56;;;;;;;7.95;4.05;;;;;;;;;;4967446;28;20106;-77
2023/06/25 06:31:22;;;;;;;11.07;3.53;;;;;;;;;;4966693;28;20019;-77
2023/06/25 06:33:48;;;;;;;5.72;3.50;;;;;;;;;;4967439;28;20501;-77
2023/06/25 06:36:14;;;;;;;6.05;3.53;;;;;;;;;;4974257;28;20023;-77
2023/06/25 06:38:40;;;;;;;4.57;3.08;;;;;;;;;;4972131;28;20478;-76
2023/06/25 06:41:06;;;;;;;4.50;3.50;;;;;;;;;;4964863;28;20054;-76
2023/06/25 06:43:32;;;;;;;5.97;3.67;;;;;;;;;;4978902;28;20078;-76
2023/06/25 06:45:58;;;;;;;6.38;2.90;;;;;;;;;;4976111;28;20097;-76
2023/06/25 06:48:24;;;;;;;5.90;3.50;;;;;;;;;;4975488;28;20552;-77
2023/06/25 06:50:50;;;;;;;6.15;3.53;;;;;;;;;;4973060;28;20031;-77
2023/06/25 06:53:16;;;;;;;4.97;2.97;;;;;;;;;;4973381;28;20459;-77
2023/06/25 06:55:42;;;;;;;4.15;3.20;;;;;;;;;;4972409;28;20050;-76
2023/06/25 06:58:08;;;;;;;4.82;3.08;;;;;;;;;;4973674;28;20039;-77
2023/06/25 07:00:34;;;;;;;5.43;3.17;;;;;;;;;;4971024;28;20022;-76
2023/06/25 07:03:01;;;;;;;4.47;3.22;;;;;;;;;;4971601;28;20042;-77
2023/06/25 07:05:27;;;;;;;5.13;3.22;;;;;;;;;;4972220;28;20093;-76
2023/06/25 07:07:52;;;;;;;5.90;2.65;;;;;;;;;;4970772;28;20035;-77
2023/06/25 07:10:18;;;;;;;3.67;2.83;;;;;;;;;;4970392;28;20039;-74
2023/06/25 07:12:44;;;;;;;5.22;3.28;;;;;;;;;;4972790;28;20034;-76
2023/06/25 07:15:10;;;;;;;4.25;3.08;;;;;;;;;;4968935;28;20023;-77
2023/06/25 07:17:36;;;;;;;4.63;2.97;;;;;;;;;;4972541;28;20490;-76
2023/06/25 07:20:02;;;;;;;4.90;2.88;;;;;;;;;;4970333;28;20026;-79
2023/06/25 07:22:28;;;;;;;8.07;2.80;;;;;;;;;;4971326;28;20031;-77
2023/06/25 07:24:54;;;;;;;4.85;2.85;;;;;;;;;;4965210;28;20076;-77
2023/06/25 07:27:20;;;;;;;6.30;2.60;;;;;;;;;;4965760;28;21223;-76
2023/06/25 07:29:46;;;;;;;4.55;2.53;;;;;;;;;;4974201;28;20040;-75
2023/06/25 07:32:12;;;;;;;4.10;2.42;;;;;;;;;;4972130;28;20028;-77
2023/06/25 07:34:38;;;;;;;3.28;2.40;;;;;;;;;;4964954;28;20066;-76
2023/06/25 07:37:05;;;;;;;4.50;2.65;;;;;;;;;;4968416;28;20030;-77
2023/06/25 07:39:32;;;;;;;5.90;2.75;;;;;;;;;;4971477;28;20035;-76
2023/06/25 07:41:58;;;;;;;4.20;2.13;;;;;;;;;;4961725;28;20035;-77
2023/06/25 07:44:25;;;;;;;3.50;2.53;;;;;;;;;;4959283;28;20590;-79
2023/06/25 07:46:51;;;;;;;2.45;2.10;;;;;;;;;;4969364;28;20035;-77
2023/06/25 07:49:17;;;;;;;4.32;2.83;;;;;;;;;;4969586;28;20113;-76
2023/06/25 07:51:45;;;;;;;3.35;2.30;;;;;;;;;;4970408;28;20034;-76
2023/06/25 07:54:12;;;;;;;4.43;2.85;;;;;;;;;;4971347;28;20066;-77
2023/06/25 07:56:38;;;;;;;3.70;2.83;;;;;;;;;;4967970;28;20122;-76
2023/06/25 07:59:04;;;;;;;3.15;2.05;;;;;;;;;;4967357;28;20491;-77
2023/06/25 08:01:31;;;;;;;4.53;2.67;;;;;;;;;;4970514;28;20033;-75
2023/06/25 08:03:57;;;;;;;4.53;2.67;;;;;;;;;;4970017;28;20046;-75
2023/06/25 08:06:30;;;;;;;6.40;2.60;;;;;;;;;;4968589;28;20040;-79
2023/06/25 08:08:56;;;;;;;4.90;2.83;;;;;;;;;;4964124;28;20023;-81
2023/06/25 08:11:22;;;;;;;4.80;2.72;;;;;;;;;;4968691;28;20099;-86
2023/06/25 08:13:48;;;;;;;3.47;2.20;;;;;;;;;;4969097;28;20027;-77
2023/06/25 08:16:14;;;;;;;3.28;2.00;;;;;;;;;;4970611;28;20080;-76
2023/06/25 08:18:40;;;;;;;2.83;2.13;;;;;;;;;;4963457;28;20030;-78
2023/06/25 08:21:10;;;;;;;3.13;2.08;;;;;;;;;;4964700;28;20497;-79
2023/06/25 08:23:35;;;;;;;6.07;2.30;;;;;;;;;;4969976;28;20114;-76
2023/06/25 08:26:02;;;;;;;3.97;2.40;;;;;;;;;;4968831;28;20105;-78
2023/06/25 08:28:28;;;;;;;3.75;2.40;;;;;;;;;;4969594;28;20402;-73
2023/06/25 08:30:54;;;;;;;4.22;2.40;;;;;;;;;;4968068;28;20042;-76
2023/06/25 08:33:20;;;;;;;4.25;2.28;;;;;;;;;;4968937;28;20030;-76
2023/06/25 08:35:46;;;;;;;3.00;2.08;;;;;;;;;;4968282;28;20183;-76
2023/06/25 08:38:17;;;;;;;2.92;2.00;;;;;;;;;;4969990;28;20482;-77
2023/06/25 08:40:46;;;;;;;3.95;2.63;;;;;;;;;;4959346;28;20030;-76
2023/06/25 08:43:12;;;;;;;2.20;1.98;;;;;;;;;;4966091;28;20606;-76
2023/06/25 08:45:38;;;;;;;4.18;2.28;;;;;;;;;;4962325;28;20498;-77
2023/06/25 08:48:08;;;;;;;2.60;1.88;;;;;;;;;;4962998;28;20031;-77
2023/06/25 08:50:34;;;;;;;7.32;2.53;;;;;;;;;;4968949;28;20470;-76
2023/06/25 08:53:00;;;;;;;4.10;2.17;;;;;;;;;;4970240;28;20034;-77
2023/06/25 08:55:27;;;;;;;3.30;2.33;;;;;;;;;;4968820;28;20035;-76
2023/06/25 08:57:59;;;;;;;3.85;2.47;;;;;;;;;;4968060;28;20430;-76
2023/06/25 09:00:25;;;;;;;2.78;2.08;;;;;;;;;;4959937;28;20043;-76
2023/06/25 09:02:51;;;;;;;2.65;2.05;;;;;;;;;;4961448;28;20030;-75
2023/06/25 09:05:24;;;;;;;2.70;2.03;;;;;;;;;;4961987;28;20162;-75
2023/06/25 09:07:50;;;;;;;3.10;2.20;;;;;;;;;;4966687;28;20031;-75
2023/06/25 09:10:16;;;;;;;4.70;1.60;;;;;;;;;;4968129;28;20374;-76
2023/06/25 09:12:47;;;;;;;3.60;2.50;;;;;;;;;;4966977;28;20069;-78
2023/06/25 09:15:13;;;;;;;2.60;1.90;;;;;;;;;;4969338;28;20035;-75
2023/06/25 09:17:39;;;;;;;5.75;2.45;;;;;;;;;;4967144;28;20039;-74
2023/06/25 09:20:06;;;;;;;4.22;1.95;;;;;;;;;;4963103;28;20109;-74
2023/06/25 09:22:32;;;;;;;3.95;2.22;;;;;;;;;;4964103;28;20026;-74
2023/06/25 09:24:58;;;;;;;2.83;2.28;;;;;;;;;;4964918;28;20576;-74
2023/06/25 09:27:27;;;;;;;3.28;2.20;;;;;;;;;;4966880;28;20023;-74
2023/06/25 09:29:59;;;;;;;3.13;2.10;;;;;;;;;;4966028;28;20061;-74
2023/06/25 09:32:28;;;;;;;3.72;2.08;;;;;;;;;;4966967;28;20374;-83
2023/06/25 09:34:54;;;;;;;3.88;2.10;;;;;;;;;;4967016;28;20110;-80
2023/06/25 09:37:20;;;;;;;3.63;2.40;;;;;;;;;;4965668;28;20514;-76
2023/06/25 09:42:55;;;;;;;3.17;2.00;;;;;;;;;;4964530;28;20033;-83
2023/06/25 09:45:22;;;;;;;3.88;2.17;;;;;;;;;;4972896;28;20048;-77
2023/06/25 09:47:48;;;;;;;2.97;2.08;;;;;;;;;;4969182;28;20030;-77
2023/06/25 09:50:24;;;;;;;3.85;2.30;;;;;;;;;;4973305;28;20116;-77
2023/06/25 09:52:57;;;;;;;2.33;1.50;;;;;;;;;;4967782;28;20034;-77
2023/06/25 09:55:24;;;;;;;3.83;2.22;;;;;;;;;;4970142;28;20030;-76
2023/06/25 09:57:50;;;;;;;3.05;1.73;;;;;;;;;;4969616;28;20030;-77
2023/06/25 10:00:17;;;;;;;4.22;2.50;;;;;;;;;;4974834;28;20121;-76
2023/06/25 10:02:44;;;;;;;4.05;2.10;;;;;;;;;;4973980;28;20119;-76
2023/06/25 10:05:10;;;;;;;2.38;2.00;;;;;;;;;;4971170;28;20181;-76
2023/06/25 10:07:36;;;;;;;3.55;2.40;;;;;;;;;;4969629;28;20034;-77
2023/06/25 10:10:03;;;;;;;5.57;2.05;;;;;;;;;;4974446;28;20411;-77
2023/06/25 10:12:33;;;;;;;2.30;1.83;;;;;;;;;;4975796;28;20056;-77
2023/06/25 10:15:01;;;;;;;3.28;2.17;;;;;;;;;;4974381;28;20117;-77
2023/06/25 10:17:28;;;;;;;3.30;2.10;;;;;;;;;;4974161;28;20497;-77
2023/06/25 10:19:56;;;;;;;3.42;2.20;;;;;;;;;;4973635;28;20038;-77
2023/06/25 10:22:23;;;;;;;3.38;2.00;;;;;;;;;;4973380;28;20589;-77
2023/06/25 10:24:49;;;;;;;2.42;1.42;;;;;;;;;;4974226;28;20458;-77
2023/06/25 10:27:20;;;;;;;3.28;1.92;;;;;;;;;;4975412;28;20031;-77
2023/06/25 10:29:46;;;;;;;2.83;2.10;;;;;;;;;;4975858;28;20035;-77
2023/06/25 10:32:12;;;;;;;3.20;2.30;;;;;;;;;;4973477;28;20035;-77
2023/06/25 10:34:39;;;;;;;2.72;2.00;;;;;;;;;;4974429;28;20035;-77
2023/06/25 10:37:05;;;;;;;4.25;2.13;;;;;;;;;;4975839;28;20034;-78
2023/06/25 10:39:38;;;;;;;2.55;1.83;;;;;;;;;;4974068;28;20062;-77
2023/06/25 10:42:04;;;;;;;3.17;1.95;;;;;;;;;;4974120;28;20706;-77
2023/06/25 10:44:31;;;;;;;3.40;2.08;;;;;;;;;;4974317;28;20425;-77
2023/06/25 10:47:07;;;;;;;3.58;2.08;;;;;;;;;;4975318;28;20635;-77
2023/06/25 10:49:34;;;;;;;2.63;1.95;;;;;;;;;;4974497;28;20031;-77
2023/06/25 10:52:01;;;;;;;2.28;1.77;;;;;;;;;;4970325;28;20054;-77
2023/06/25 10:54:27;;;;;;;3.35;1.95;;;;;;;;;;4971885;28;20398;-76
2023/06/25 10:56:54;;;;;;;3.20;2.17;;;;;;;;;;4971016;28;20027;-77
2023/06/25 10:59:23;;;;;;;5.13;2.75;;;;;;;;;;4972288;28;20031;-77
2023/06/25 11:01:51;;;;;;;3.08;2.10;;;;;;;;;;4969421;28;20116;-76
2023/06/25 11:04:17;;;;;;;2.80;1.90;;;;;;;;;;4970385;28;20051;-77
2023/06/25 11:06:44;;;;;;;4.28;2.20;;;;;;;;;;4969887;28;20439;-77
2023/06/25 11:09:10;;;;;;;2.38;1.92;;;;;;;;;;4970005;28;20034;-77
2023/06/25 11:11:37;;;;;;;2.58;1.77;;;;;;;;;;4970462;28;20015;-77
2023/06/25 11:14:03;;;;;;;1.85;1.70;;;;;;;;;;4970892;28;20027;-76
2023/06/25 11:16:29;;;;;;;3.00;2.00;;;;;;;;;;4971409;28;20035;-77
2023/06/25 11:18:55;;;;;;;2.97;1.75;;;;;;;;;;4970793;28;20026;-77
2023/06/25 11:21:21;;;;;;;2.42;1.80;;;;;;;;;;4971069;28;20062;-77
2023/06/25 11:23:47;;;;;;;2.75;2.00;;;;;;;;;;4964497;28;20046;-77
2023/06/25 11:26:17;;;;;;;2.45;2.00;;;;;;;;;;4971133;28;20033;-77
2023/06/25 11:28:43;;;;;;;3.30;2.03;;;;;;;;;;4968859;28;20022;-77
2023/06/25 11:31:09;;;;;;;2.60;1.73;;;;;;;;;;4970474;28;20031;-76
2023/06/25 11:33:35;;;;;;;2.67;2.05;;;;;;;;;;4969734;28;20058;-77
2023/06/25 11:36:10;;;;;;;2.30;1.90;;;;;;;;;;4970726;28;20042;-77
2023/06/25 11:38:36;;;;;;;4.40;2.22;;;;;;;;;;4969306;28;20498;-77
2023/06/25 11:41:03;;;;;;;2.10;1.42;;;;;;;;;;4970003;28;20431;-77
2023/06/25 11:43:32;;;;;;;2.20;1.67;;;;;;;;;;4958340;28;20538;-77
2023/06/25 11:46:02;;;;;;;2.38;1.55;;;;;;;;;;4971119;28;20153;-77
2023/06/25 11:48:29;;;;;;;5.25;1.90;;;;;;;;;;4970636;28;20097;-77
2023/06/25 11:51:02;;;;;;;3.10;1.98;;;;;;;;;;4970335;28;20105;-77
2023/06/25 11:53:28;;;;;;;2.45;1.60;;;;;;;;;;4971690;28;20113;-77
2023/06/25 11:55:54;;;;;;;1.98;1.45;;;;;;;;;;4965502;28;20425;-77
2023/06/25 11:58:20;;;;;;;3.28;1.70;;;;;;;;;;4968076;28;20422;-77
2023/06/25 12:00:46;;;;;;;3.00;1.80;;;;;;;;;;4970418;28;20041;-78
2023/06/25 12:03:12;;;;;;;1.77;1.55;;;;;;;;;;4970219;28;20122;-76
2023/06/25 12:05:38;;;;;;;2.80;2.10;;;;;;;;;;4968284;28;20045;-79
2023/06/25 12:08:04;;;;;;;2.45;2.00;;;;;;;;;;4968210;28;20027;-79
2023/06/25 12:10:30;;;;;;;2.38;1.83;;;;;;;;;;4967424;28;20053;-77
2023/06/25 12:12:56;;;;;;;2.22;1.77;;;;;;;;;;4970646;28;20026;-76
2023/06/25 12:15:22;;;;;;;2.42;1.70;;;;;;;;;;4971046;28;20027;-76
2023/06/25 12:17:48;;;;;;;4.43;1.90;;;;;;;;;;4968780;28;20030;-76
2023/06/25 12:20:14;;;;;;;2.63;1.90;;;;;;;;;;4970523;28;20036;-76
2023/06/25 12:22:40;;;;;;;2.58;1.80;;;;;;;;;;4970240;28;20117;-76
2023/06/25 12:25:06;;;;;;;2.50;1.73;;;;;;;;;;4969829;28;20023;-76
2023/06/25 12:27:32;;;;;;;3.13;1.88;;;;;;;;;;4967639;28;20055;-76
2023/06/25 12:29:58;;;;;;;1.98;1.77;;;;;;;;;;4964065;28;20062;-76
2023/06/25 12:32:24;;;;;;;2.80;1.90;;;;;;;;;;4966347;28;20077;-76
2023/06/25 12:34:50;;;;;;;2.65;1.63;;;;;;;;;;4960424;28;20050;-76
2023/06/25 12:37:16;;;;;;;2.33;1.63;;;;;;;;;;4965431;28;20482;-76
2023/06/25 12:39:42;;;;;;;2.25;1.70;;;;;;;;;;4970726;28;20026;-76
2023/06/25 12:42:08;;;;;;;2.75;1.77;;;;;;;;;;4969805;28;20756;-76
2023/06/25 12:44:34;;;;;;;2.75;1.70;;;;;;;;;;4969960;28;20101;-76
2023/06/25 12:47:00;;;;;;;2.75;1.73;;;;;;;;;;4968812;28;20429;-76
2023/06/25 12:49:26;;;;;;;4.30;1.90;;;;;;;;;;4969420;28;20245;-77
2023/06/25 12:51:52;;;;;;;2.28;1.80;;;;;;;;;;4970172;28;20059;-76
2023/06/25 12:54:18;;;;;;;2.15;1.60;;;;;;;;;;4970337;28;20085;-77
2023/06/25 12:56:45;;;;;;;9.63;2.38;;;;;;;;;;4968964;28;20034;-77
2023/06/25 12:59:11;;;;;;;2.53;1.92;;;;;;;;;;4968578;28;20045;-76
2023/06/25 13:01:36;;;;;;;2.22;1.70;;;;;;;;;;4970260;28;20022;-76
2023/06/25 13:04:03;;;;;;;1.92;1.58;;;;;;;;;;4969212;28;20394;-77
2023/06/25 13:06:29;;;;;;;1.98;1.70;;;;;;;;;;4967399;28;20236;-76
2023/06/25 13:08:55;;;;;;;3.38;1.65;;;;;;;;;;4968631;28;20087;-77
2023/06/25 13:11:21;;;;;;;2.95;1.92;;;;;;;;;;4969728;28;20513;-76
2023/06/25 13:13:47;;;;;;;3.55;1.90;;;;;;;;;;4967481;28;20485;-76
2023/06/25 13:16:13;;;;;;;2.42;1.77;;;;;;;;;;4969495;28;20097;-77
2023/06/25 13:18:41;;;;;;;2.15;1.67;;;;;;;;;;4967590;28;20394;-76
2023/06/25 13:21:07;;;;;;;3.60;1.90;;;;;;;;;;4969051;28;20022;-77
2023/06/25 13:23:33;;;;;;;2.50;1.90;;;;;;;;;;4968788;28;20057;-78
2023/06/25 13:25:59;;;;;;;2.25;1.50;;;;;;;;;;4968433;28;20035;-78
2023/06/25 13:28:26;;;;;;;2.80;1.70;;;;;;;;;;4967825;28;20487;-78
2023/06/25 13:30:52;;;;;;;2.15;1.70;;;;;;;;;;4968067;28;20026;-76
2023/06/25 13:33:18;;;;;;;2.25;1.70;;;;;;;;;;4968958;28;20041;-77
2023/06/25 13:35:44;;;;;;;2.20;1.70;;;;;;;;;;4968798;28;20367;-77
2023/06/25 13:38:10;;;;;;;2.08;1.60;;;;;;;;;;4968897;28;20023;-77
2023/06/25 13:40:36;;;;;;;2.03;1.67;;;;;;;;;;4967913;28;20563;-77
2023/06/25 13:43:02;;;;;;;1.80;1.50;;;;;;;;;;4964863;28;20114;-78
2023/06/25 13:45:29;;;;;;;2.40;1.85;;;;;;;;;;4965776;28;20027;-77
2023/06/25 13:47:55;;;;;;;2.55;2.03;;;;;;;;;;4968394;28;20027;-75
2023/06/25 13:50:24;;;;;;;2.25;1.70;;;;;;;;;;4966605;28;20038;-76
2023/06/25 13:52:50;;;;;;;1.80;1.25;;;;;;;;;;4968963;28;20034;-77
2023/06/25 13:55:17;;;;;;;3.78;1.92;;;;;;;;;;4968829;28;20731;-76
2023/06/25 13:57:43;;;;;;;3.65;1.70;;;;;;;;;;4968955;28;20039;-76
2023/06/25 14:00:09;;;;;;;2.83;2.03;;;;;;;;;;4967596;28;20385;-76
2023/06/25 14:02:35;;;;;;;4.47;1.60;;;;;;;;;;4966475;28;20030;-76
2023/06/25 14:05:01;;;;;;;2.47;1.88;;;;;;;;;;4968315;28;20138;-76
2023/06/25 14:07:27;;;;;;;2.45;2.00;;;;;;;;;;4965182;28;20095;-76
2023/06/25 14:09:53;;;;;;;1.38;1.27;;;;;;;;;;4968020;28;20391;-76
2023/06/25 14:12:19;;;;;;;2.53;2.00;;;;;;;;;;4968707;28;20172;-76
2023/06/25 14:14:45;;;;;;;1.63;1.35;;;;;;;;;;4968986;28;20094;-76
2023/06/25 14:17:11;;;;;;;1.98;1.45;;;;;;;;;;4964385;28;20890;-82
2023/06/25 14:19:37;;;;;;;2.22;1.35;;;;;;;;;;4967244;28;20062;-81
2023/06/25 14:22:03;;;;;;;2.10;1.83;;;;;;;;;;4964661;28;20121;-82
2023/06/25 14:24:29;;;;;;;4.43;1.67;;;;;;;;;;4963285;28;20495;-81
2023/06/25 14:26:55;;;;;;;1.98;1.58;;;;;;;;;;4968489;28;20023;-82
2023/06/25 14:29:21;;;;;;;2.30;1.55;;;;;;;;;;4968657;28;20023;-82
2023/06/25 14:31:47;;;;;;;2.40;1.63;;;;;;;;;;4973466;28;20058;-82
2023/06/25 14:34:13;;;;;;;1.55;1.40;;;;;;;;;;4969281;28;20027;-81
2023/06/25 14:36:39;;;;;;;2.17;1.52;;;;;;;;;;4971519;28;20077;-81
2023/06/25 14:39:05;;;;;;;4.72;1.95;;;;;;;;;;4971781;28;20051;-82
2023/06/25 14:41:31;;;;;;;2.20;1.40;;;;;;;;;;4972437;28;20504;-82